Time;durP1;ratioP1;P1;durP2;ratioP2;P2;SDS_P1;SDS_P2;PMS_P1;PMS_P2;Temp;Humidity;BMP_temperature;BMP_pressure;BME280_temperature;BME280_humidity;BME280_pressure;Samples;Min_cycle;Max_cycle;Signal;HPM_P1;HPM_P2
2023/10/08 00:02:39;;;;;;;40.10;7.57;;;;;;;6.43;69.68;100236.13;10504261;28;20119;-80
2023/10/08 00:07:42;;;;;;;13.43;6.15;;;;;;;6.72;70.12;100274.81;10502662;28;20037;-80
2023/10/08 00:12:47;;;;;;;22.42;6.40;;;;;;;6.60;70.30;100260.94;10502940;28;20127;-80
2023/10/08 00:17:49;;;;;;;12.77;5.53;;;;;;;6.74;69.79;100300.09;10502934;28;20118;-80
2023/10/08 00:22:49;;;;;;;12.88;5.45;;;;;;;6.68;69.75;100284.81;10503302;28;20045;-80
2023/10/08 00:27:51;;;;;;;24.30;5.97;;;;;;;6.30;69.87;100225.06;10504182;28;20452;-80
2023/10/08 00:32:51;;;;;;;39.53;5.80;;;;;;;6.54;69.99;100267.63;10506366;28;20186;-80
2023/10/08 00:37:53;;;;;;;18.23;5.68;;;;;;;6.29;70.60;100226.06;10502720;28;20143;-80
2023/10/08 00:42:56;;;;;;;18.02;5.25;;;;;;;6.47;70.66;100256.00;10501430;28;20044;-80
2023/10/08 00:47:57;;;;;;;24.45;5.63;;;;;;;6.60;70.30;100261.78;10501321;28;20105;-80
2023/10/08 00:53:09;;;;;;;21.83;5.40;;;;;;;6.58;69.63;100242.63;10501498;28;20483;-79
2023/10/08 00:58:12;;;;;;;25.05;6.00;;;;;;;6.66;69.44;100257.72;10501368;28;20036;-80
2023/10/08 01:03:16;;;;;;;17.65;5.13;;;;;;;6.47;69.15;100207.69;10516950;28;20090;-80
2023/10/08 01:08:34;;;;;;;11.57;4.65;;;;;;;6.64;68.95;100235.91;10542584;28;20085;-80
2023/10/08 01:13:42;;;;;;;11.02;4.15;;;;;;;6.23;69.06;100158.88;10542635;28;20051;-80
2023/10/08 01:18:47;;;;;;;13.57;4.60;;;;;;;6.10;69.59;100153.06;10542493;28;20039;-80
2023/10/08 01:23:48;;;;;;;12.25;4.80;;;;;;;5.93;69.30;100134.41;10541818;28;20044;-80
2023/10/08 01:28:49;;;;;;;50.13;6.43;;;;;;;6.44;69.46;100226.44;10542108;28;20046;-80
2023/10/08 01:33:56;;;;;;;13.90;5.50;;;;;;;6.35;69.36;100221.03;10542526;28;20089;-80
2023/10/08 01:38:58;;;;;;;17.27;5.45;;;;;;;6.33;70.19;100225.63;10540198;28;20048;-80
2023/10/08 01:43:59;;;;;;;18.13;5.80;;;;;;;6.26;70.35;100192.88;10541994;28;20078;-80
2023/10/08 01:49:04;;;;;;;14.45;6.35;;;;;;;6.33;71.03;100222.16;10541361;28;20505;-80
2023/10/08 01:54:11;;;;;;;14.70;5.80;;;;;;;6.13;71.01;100189.72;10541037;28;20462;-80
2023/10/08 01:59:14;;;;;;;13.88;5.90;;;;;;;5.84;72.43;100151.06;10538087;28;20089;-80
2023/10/08 02:04:16;;;;;;;18.88;5.60;;;;;;;5.59;71.58;100112.94;10508172;28;20491;-80
2023/10/08 02:09:17;;;;;;;18.42;6.07;;;;;;;6.04;72.20;100169.47;10498494;28;20037;-80
2023/10/08 02:14:18;;;;;;;17.00;6.00;;;;;;;6.00;72.22;100165.47;10497299;28;20040;-80
2023/10/08 02:19:26;;;;;;;12.13;5.82;;;;;;;6.01;72.33;100170.59;10497684;28;20036;-80
2023/10/08 02:24:29;;;;;;;57.05;7.78;;;;;;;6.07;73.19;100204.31;10497355;28;20040;-79
2023/10/08 02:29:31;;;;;;;28.20;6.20;;;;;;;5.41;73.07;100109.34;10497594;28;20461;-80
2023/10/08 02:34:31;;;;;;;37.22;6.75;;;;;;;5.85;73.34;100192.25;10497627;28;20131;-80
2023/10/08 02:39:32;;;;;;;31.90;6.50;;;;;;;5.35;73.70;100110.75;10497419;28;20563;-80
2023/10/08 02:44:33;;;;;;;47.25;7.10;;;;;;;5.75;73.29;100195.88;10496473;28;20086;-80
2023/10/08 02:49:34;;;;;;;33.90;6.75;;;;;;;5.63;73.62;100184.66;10496663;28;20044;-80
2023/10/08 02:54:38;;;;;;;16.45;5.63;;;;;;;5.51;73.84;100183.13;10496194;28;20040;-80
2023/10/08 02:59:40;;;;;;;26.63;6.38;;;;;;;5.14;74.31;100103.00;10496558;28;20121;-80
2023/10/08 03:04:45;;;;;;;25.05;6.95;;;;;;;5.49;74.74;100154.28;10496618;28;20051;-80
2023/10/08 03:09:45;;;;;;;19.63;6.25;;;;;;;5.55;74.85;100168.69;10496809;28;20083;-80
2023/10/08 03:15:01;;;;;;;23.88;6.75;;;;;;;5.48;75.02;100158.72;10496551;28;20136;-80
2023/10/08 03:20:27;;;;;;;19.42;6.30;;;;;;;5.36;74.95;100154.56;10497058;28;20056;-80
2023/10/08 03:25:24;;;;;;;29.42;6.95;;;;;;;5.56;75.24;100171.19;10495724;28;20119;-80
2023/10/08 03:30:26;;;;;;;99.97;9.63;;;;;;;5.31;75.46;100117.28;10495658;28;20060;-80
2023/10/08 03:35:36;;;;;;;37.83;7.28;;;;;;;5.58;75.12;100142.06;10495322;28;20044;-80
2023/10/08 03:40:43;;;;;;;27.13;5.78;;;;;;;5.70;75.07;100139.13;10495309;28;20522;-80
2023/10/08 03:51:06;;;;;;;31.85;6.97;;;;;;;6.17;74.87;100096.16;10495580;28;20047;-80
2023/10/08 03:56:07;;;;;;;15.88;5.57;;;;;;;6.83;73.48;100085.34;10495714;28;20036;-80
2023/10/08 04:01:18;;;;;;;19.77;5.57;;;;;;;7.55;71.41;100127.59;10494863;28;20044;-80
2023/10/08 04:06:28;;;;;;;32.70;6.38;;;;;;;7.89;70.50;100111.78;10495562;28;20048;-80
2023/10/08 04:11:35;;;;;;;33.03;5.97;;;;;;;8.69;69.22;100144.09;10504553;28;20046;-81
2023/10/08 04:16:37;;;;;;;21.70;6.50;;;;;;;9.03;67.90;100110.56;10482393;28;20048;-80
2023/10/08 04:21:42;;;;;;;24.95;6.50;;;;;;;9.22;67.05;100065.22;10531132;28;20089;-80
2023/10/08 04:26:43;;;;;;;23.00;7.22;;;;;;;9.79;65.65;100096.13;10526421;28;20040;-80
2023/10/08 04:31:46;;;;;;;16.02;6.78;;;;;;;10.17;64.45;100101.66;10495026;28;20107;-81
2023/10/08 04:36:53;;;;;;;12.25;6.40;;;;;;;10.65;63.88;100115.75;10494358;28;20039;-80
2023/10/08 04:41:56;;;;;;;26.20;6.95;;;;;;;10.63;62.97;100040.75;10525080;28;20082;-80
2023/10/08 04:47:04;;;;;;;;;;;;;;;11.80;61.54;100129.06;10544286;28;20035;-80
2023/10/08 04:52:14;;;;;;;21.02;7.05;;;;;;;11.75;61.78;100132.25;10542722;28;19924;-81
2023/10/08 04:57:17;;;;;;;24.27;9.52;;;;;;;12.02;61.46;100111.38;10542710;28;20047;-81
2023/10/08 05:18:13;;;;;;;19.42;7.55;;;;;;;13.05;59.41;100070.41;10542588;28;20048;-78
2023/10/08 05:28:30;;;;;;;24.45;7.32;;;;;;;13.70;58.63;100082.66;10542171;28;20085;-80
2023/10/08 05:34:14;;;;;;;18.30;7.80;;;;;;;14.05;57.95;100095.19;10541292;28;20660;-80
2023/10/08 05:44:39;;;;;;;16.98;7.22;;;;;;;14.82;57.61;100064.72;10541506;28;20089;-82
2023/10/08 05:49:53;;;;;;;24.13;7.07;;;;;;;15.11;57.01;100063.53;10539671;28;20039;-77
2023/10/08 06:05:22;;;;;;;10.02;5.57;;;;;;;16.08;55.72;100047.78;10541185;28;20036;-76
2023/10/08 06:21:08;;;;;;;125.75;10.07;;;;;;;17.03;55.25;99984.38;10498135;28;20120;-77
2023/10/08 06:31:17;;;;;;;26.67;5.13;;;;;;;17.72;54.30;99941.34;10491048;28;20063;-78
2023/10/08 07:07:19;;;;;;;17.88;4.75;;;;;;;20.00;50.32;99889.81;12368165;22;20053;-78
2023/10/08 07:12:24;;;;;;;10.65;4.85;;;;;;;20.45;49.21;99908.69;10452923;28;20040;-77
2023/10/08 07:17:27;;;;;;;11.45;4.68;;;;;;;20.10;49.14;99803.69;10452164;28;20040;-79
2023/10/08 07:22:28;;;;;;;16.83;4.80;;;;;;;20.97;48.98;99892.28;10452636;28;20033;-77
2023/10/08 07:27:37;;;;;;;11.63;5.07;;;;;;;21.20;48.34;99874.22;10451369;28;20354;-72
2023/10/08 07:32:41;;;;;;;11.45;4.80;;;;;;;21.37;47.97;99831.81;10443163;28;20048;-82
2023/10/08 07:37:42;;;;;;;;;;;;;;;21.94;47.54;99876.50;10446524;28;20064;-82
2023/10/08 07:42:51;;;;;;;11.57;5.55;;;;;;;21.84;47.58;99869.13;10451204;28;19924;-82
2023/10/08 07:47:55;;;;;;;9.38;5.30;;;;;;;21.50;46.65;99802.75;10441670;28;20061;-80
2023/10/08 07:52:56;;;;;;;13.48;6.07;;;;;;;21.87;46.68;99846.16;10440182;28;20119;-80
2023/10/08 07:57:56;;;;;;;11.93;5.20;;;;;;;21.65;46.42;99846.19;10450285;28;20040;-82
2023/10/08 08:02:57;;;;;;;13.75;5.57;;;;;;;21.96;46.21;99836.53;10452317;28;20033;-81
2023/10/08 08:08:05;;;;;;;12.40;5.47;;;;;;;22.29;45.61;99840.09;10438342;28;20057;-78
2023/10/08 08:13:06;;;;;;;15.90;5.75;;;;;;;22.49;45.08;99823.19;10411977;28;20046;-83
2023/10/08 08:18:21;;;;;;;9.10;4.88;;;;;;;22.65;43.68;99816.03;10419497;28;20048;-89
2023/10/08 08:23:21;;;;;;;10.45;5.28;;;;;;;22.64;43.28;99758.31;10416211;28;20515;-81
2023/10/08 08:28:24;;;;;;;11.10;5.82;;;;;;;23.07;42.82;99783.50;10416659;28;20036;-83
2023/10/08 08:33:29;;;;;;;14.00;5.43;;;;;;;23.38;43.37;99794.47;10418124;28;20408;-81
2023/10/08 08:38:32;;;;;;;11.30;4.95;;;;;;;23.29;42.44;99761.63;10417701;28;20033;-78
2023/10/08 08:43:35;;;;;;;15.53;6.13;;;;;;;23.05;40.66;99669.19;10417277;28;20041;-80
2023/10/08 08:48:38;;;;;;;10.32;5.15;;;;;;;23.44;40.81;99712.88;10417015;28;20073;-81
2023/10/08 08:53:41;;;;;;;15.20;4.68;;;;;;;23.92;40.55;99766.94;10415427;28;20128;-80
2023/10/08 08:58:43;;;;;;;11.48;4.57;;;;;;;24.01;38.59;99759.09;10416747;28;20049;-80
2023/10/08 09:03:47;;;;;;;7.95;4.70;;;;;;;24.09;38.31;99729.50;10415773;28;20523;-81
2023/10/08 09:08:49;;;;;;;11.82;5.18;;;;;;;24.21;37.48;99707.53;10413599;28;20050;-80
2023/10/08 09:13:49;;;;;;;12.52;5.00;;;;;;;24.54;36.87;99733.28;10416289;28;20045;-78
2023/10/08 09:18:51;;;;;;;21.95;5.50;;;;;;;24.59;36.36;99714.25;10416594;28;20048;-80
2023/10/08 09:23:54;;;;;;;15.98;4.93;;;;;;;24.64;36.00;99705.28;10415941;28;20048;-78
2023/10/08 09:28:55;;;;;;;10.17;4.87;;;;;;;24.52;35.63;99662.13;10416941;28;20065;-77
2023/10/08 09:33:56;;;;;;;11.15;4.72;;;;;;;24.81;35.50;99684.03;10416420;28;20061;-79
2023/10/08 09:39:06;;;;;;;15.48;4.93;;;;;;;24.40;34.28;99596.44;10417577;28;20107;-76
2023/10/08 09:44:10;;;;;;;10.82;4.57;;;;;;;25.06;34.17;99674.13;10417024;28;20547;-77
2023/10/08 09:49:13;;;;;;;13.85;5.20;;;;;;;25.23;34.18;99668.34;10417369;28;20107;-76
2023/10/08 09:54:53;;;;;;;10.48;4.88;;;;;;;25.50;34.01;99646.97;10416270;28;20167;-79
2023/10/08 09:59:57;;;;;;;13.35;5.40;;;;;;;25.26;33.93;99619.69;10412037;28;20073;-79
2023/10/08 10:04:57;;;;;;;;;;;;;;;25.67;35.48;99632.16;10416802;28;20061;-78
2023/10/08 10:09:59;;;;;;;13.43;4.10;;;;;;;24.93;34.78;99610.34;10416352;28;19963;-78
2023/10/08 10:15:00;;;;;;;17.60;4.85;;;;;;;24.93;34.76;99601.41;10416123;28;20037;-78
2023/10/08 10:20:03;;;;;;;9.63;4.10;;;;;;;24.75;34.33;99608.28;10415563;28;20041;-77
2023/10/08 10:25:14;;;;;;;23.27;5.63;;;;;;;24.58;34.81;99619.50;10414960;28;20037;-77
2023/10/08 10:30:18;;;;;;;8.73;4.40;;;;;;;24.85;33.56;99601.97;10414755;28;20095;-77
2023/10/08 10:35:19;;;;;;;19.20;5.10;;;;;;;24.92;33.85;99595.16;10413883;28;20496;-78
2023/10/08 10:40:57;;;;;;;15.15;4.78;;;;;;;24.73;32.74;99586.00;10414441;28;20033;-78
2023/10/08 10:45:54;;;;;;;25.67;5.72;;;;;;;24.63;33.58;99569.78;10413128;28;20053;-78
2023/10/08 10:56:09;;;;;;;13.35;4.22;;;;;;;25.16;33.41;99556.41;10414941;28;20488;-76
2023/10/08 11:01:46;;;;;;;10.80;4.50;;;;;;;25.33;32.18;99553.28;10413968;28;20045;-77
2023/10/08 11:06:38;;;;;;;12.80;4.38;;;;;;;24.96;31.82;99498.41;10413741;28;20037;-77
2023/10/08 11:11:43;;;;;;;10.50;4.45;;;;;;;24.83;32.42;99496.34;10414275;28;20065;-77
2023/10/08 11:16:45;;;;;;;10.35;4.28;;;;;;;25.08;31.84;99532.56;10413966;28;20044;-77
2023/10/08 11:21:55;;;;;;;10.60;4.90;;;;;;;24.98;31.24;99509.78;10413061;28;20045;-77
2023/10/08 11:32:17;;;;;;;10.35;4.53;;;;;;;25.24;31.26;99517.75;10413342;28;20130;-76
2023/10/08 11:37:28;;;;;;;11.07;4.75;;;;;;;25.33;31.28;99512.53;10413995;28;20079;-76
2023/10/08 11:47:35;;;;;;;8.27;4.70;;;;;;;24.56;32.39;99442.44;10415584;28;20532;-78
2023/10/08 11:52:41;;;;;;;10.52;4.55;;;;;;;25.01;31.63;99492.94;10379662;28;20049;-76
2023/10/08 11:57:45;;;;;;;10.10;4.45;;;;;;;25.06;32.30;99487.44;10379767;28;20052;-75
2023/10/08 12:02:49;;;;;;;11.93;4.60;;;;;;;24.91;31.57;99490.28;10402700;28;20042;-75
2023/10/08 12:07:52;;;;;;;24.10;4.85;;;;;;;24.82;32.08;99484.63;10420103;28;20428;-76
2023/10/08 12:12:54;;;;;;;9.20;4.20;;;;;;;24.86;32.49;99482.19;10420164;28;20045;-76
2023/10/08 12:23:37;;;;;;;7.72;4.30;;;;;;;24.81;32.97;99464.00;10420031;28;20046;-76
2023/10/08 12:28:37;;;;;;;8.77;4.70;;;;;;;24.75;32.33;99462.41;10419798;28;20046;-77
2023/10/08 12:33:40;;;;;;;11.75;4.95;;;;;;;24.65;32.36;99442.66;10420400;28;20043;-75
2023/10/08 12:38:42;;;;;;;11.73;5.07;;;;;;;24.53;32.42;99441.13;10419181;28;20041;-75
2023/10/08 12:43:52;;;;;;;16.60;5.35;;;;;;;24.36;33.00;99433.34;10418979;28;20046;-75
2023/10/08 12:48:54;;;;;;;24.35;5.78;;;;;;;24.13;33.40;99431.31;10418055;28;20041;-75
2023/10/08 12:54:33;;;;;;;14.88;4.72;;;;;;;23.85;33.69;99417.34;10419265;28;20041;-75
2023/10/08 12:59:23;;;;;;;19.17;5.32;;;;;;;23.74;34.05;99421.19;10416371;28;20077;-75
2023/10/08 13:04:34;;;;;;;13.50;4.70;;;;;;;23.39;34.02;99379.53;10418878;28;20088;-77
2023/10/08 13:09:36;;;;;;;17.15;5.30;;;;;;;23.41;34.76;99392.78;10418935;28;20136;-75
2023/10/08 13:14:37;;;;;;;14.63;4.63;;;;;;;23.38;34.92;99412.31;10417775;28;20041;-75
2023/10/08 13:19:38;;;;;;;22.70;5.88;;;;;;;22.94;35.03;99347.91;10417315;28;20047;-75
2023/10/08 13:24:41;;;;;;;23.13;5.30;;;;;;;23.12;35.86;99392.59;10418073;28;20061;-75
2023/10/08 13:29:43;;;;;;;20.42;4.68;;;;;;;22.85;35.87;99379.31;10416460;28;20048;-76
2023/10/08 13:34:45;;;;;;;14.00;5.00;;;;;;;22.69;36.57;99390.16;10418486;28;20046;-75
2023/10/08 13:39:46;;;;;;;17.48;4.65;;;;;;;22.25;37.35;99349.28;10416722;28;20038;-75
2023/10/08 13:44:48;;;;;;;12.65;4.85;;;;;;;22.20;37.72;99376.34;10416440;28;20045;-76
2023/10/08 13:49:50;;;;;;;48.55;5.80;;;;;;;22.07;39.06;99396.56;10415663;28;20041;-75
2023/10/08 13:54:52;;;;;;;34.80;6.15;;;;;;;21.68;40.01;99379.94;10417074;28;20045;-74
2023/10/08 13:59:53;;;;;;;36.33;6.63;;;;;;;21.35;40.88;99371.94;10415991;28;20041;-74
2023/10/08 14:04:53;;;;;;;96.03;14.45;;;;;;;21.22;41.63;99388.63;10415910;28;20041;-75
2023/10/08 14:09:54;;;;;;;136.50;14.50;;;;;;;20.89;43.58;99384.34;10414173;28;20085;-74
2023/10/08 14:14:55;;;;;;;456.75;34.47;;;;;;;20.46;44.89;99376.16;10416463;28;20129;-75
2023/10/08 14:20:06;;;;;;;75.82;13.80;;;;;;;20.05;46.25;99378.47;10416525;28;20045;-74
2023/10/08 14:25:14;;;;;;;163.48;61.28;;;;;;;19.68;48.68;99385.56;10415441;28;20049;-74
2023/10/08 14:30:17;;;;;;;172.75;60.90;;;;;;;19.29;49.49;99380.19;10415390;28;20051;-75
2023/10/08 14:45:59;;;;;;;329.98;104.93;;;;;;;18.00;54.43;99379.16;10414617;28;20119;-74
2023/10/08 14:50:59;;;;;;;466.23;171.17;;;;;;;17.60;55.35;99349.63;10414692;28;20044;-77
2023/10/08 14:56:03;;;;;;;461.05;196.00;;;;;;;17.48;56.84;99373.81;10413804;28;20037;-76
2023/10/08 15:01:04;;;;;;;;;;;;;;;17.42;57.40;99372.06;10414365;28;20048;-76
2023/10/08 15:06:07;;;;;;;307.73;119.93;;;;;;;16.85;57.65;99354.72;10411918;28;20368;-75
2023/10/08 15:11:10;;;;;;;194.90;65.38;;;;;;;16.25;59.22;99311.97;10412648;28;20511;-78
2023/10/08 15:16:12;;;;;;;264.48;56.78;;;;;;;16.11;60.44;99318.59;10413561;28;20071;-78
2023/10/08 15:21:12;;;;;;;190.25;55.15;;;;;;;15.92;61.77;99336.59;10413255;28;20087;-78
2023/10/08 15:26:13;;;;;;;186.02;54.85;;;;;;;15.38;62.46;99287.44;10412852;28;20095;-78
2023/10/08 15:31:14;;;;;;;159.75;52.17;;;;;;;15.35;62.82;99301.25;10412938;28;20132;-77
2023/10/08 15:36:17;;;;;;;157.07;47.55;;;;;;;15.58;62.96;99338.81;10412593;28;20103;-77
2023/10/08 15:41:19;;;;;;;113.35;39.58;;;;;;;15.26;62.99;99295.38;10413244;28;20038;-78
2023/10/08 15:46:20;;;;;;;102.40;35.80;;;;;;;15.43;63.41;99341.88;10413684;28;20037;-73
2023/10/08 15:51:21;;;;;;;103.65;35.13;;;;;;;15.13;64.23;99317.75;10409496;28;20045;-72
2023/10/08 15:56:22;;;;;;;121.63;42.28;;;;;;;15.18;64.45;99333.13;10411940;28;20459;-76
2023/10/08 16:01:22;;;;;;;96.97;33.38;;;;;;;14.95;65.28;99321.22;10410630;28;20049;-74
2023/10/08 16:06:23;;;;;;;202.43;75.57;;;;;;;14.42;66.20;99270.94;10412074;28;20052;-77
2023/10/08 16:11:26;;;;;;;203.43;81.97;;;;;;;14.64;66.45;99342.72;10412036;28;20104;-74
2023/10/08 16:16:27;;;;;;;158.02;55.80;;;;;;;14.38;67.24;99333.84;10412257;28;20041;-75
2023/10/08 16:21:28;;;;;;;135.60;52.55;;;;;;;14.45;67.40;99339.13;10412981;28;20045;-81
2023/10/08 16:26:28;;;;;;;136.70;52.75;;;;;;;14.26;68.00;99325.69;10410975;28;20523;-76
2023/10/08 16:31:33;;;;;;;119.05;49.45;;;;;;;14.05;68.59;99316.19;10410504;28;20043;-83
2023/10/08 16:36:34;;;;;;;104.32;42.83;;;;;;;13.89;69.35;99320.19;10416792;28;20049;-76
2023/10/08 16:41:35;;;;;;;101.68;37.33;;;;;;;13.95;69.55;99323.06;10419102;28;20582;-77
2023/10/08 16:46:36;;;;;;;107.43;37.97;;;;;;;13.96;69.99;99316.66;10417981;28;20041;-76
2023/10/08 16:51:37;;;;;;;118.18;38.88;;;;;;;13.62;70.17;99302.69;10418877;28;20064;-78
2023/10/08 16:56:38;;;;;;;106.10;37.47;;;;;;;13.38;70.71;99273.06;10419150;28;20041;-75
2023/10/08 17:01:41;;;;;;;99.93;36.42;;;;;;;13.53;71.23;99320.81;10418896;28;20095;-74
2023/10/08 17:06:41;;;;;;;101.95;34.00;;;;;;;12.74;71.28;99220.53;10416832;28;20037;-74
2023/10/08 17:11:45;;;;;;;99.88;30.88;;;;;;;13.21;71.60;99315.34;10419242;28;20050;-74
2023/10/08 17:16:46;;;;;;;94.32;28.42;;;;;;;13.12;72.35;99318.47;10417537;28;20405;-74
2023/10/08 17:21:49;;;;;;;70.47;17.75;;;;;;;13.10;73.09;99315.16;10417524;28;20045;-74
2023/10/08 17:26:50;;;;;;;74.03;16.40;;;;;;;13.08;73.42;99310.06;10417297;28;20485;-74
2023/10/08 17:31:51;;;;;;;106.93;29.80;;;;;;;13.01;74.03;99286.09;10417243;28;20150;-75
2023/10/08 17:36:53;;;;;;;135.10;34.45;;;;;;;13.13;73.83;99299.59;10418484;28;20048;-74
2023/10/08 17:41:54;;;;;;;100.90;30.60;;;;;;;12.81;74.50;99273.84;10416466;28;20046;-74
2023/10/08 17:46:56;;;;;;;110.72;30.55;;;;;;;12.81;74.91;99303.97;10416801;28;20045;-74
2023/10/08 17:51:57;;;;;;;105.30;30.23;;;;;;;12.66;74.95;99272.22;10417139;28;20127;-74
2023/10/08 17:56:58;;;;;;;85.90;24.05;;;;;;;12.83;75.00;99293.09;10416239;28;20128;-74
2023/10/08 18:01:59;;;;;;;61.25;19.65;;;;;;;12.72;75.09;99287.38;10417301;28;20045;-75
2023/10/08 18:07:00;;;;;;;69.45;19.70;;;;;;;12.32;75.97;99259.94;10416665;28;20463;-74
2023/10/08 18:12:01;;;;;;;80.10;17.65;;;;;;;12.39;76.07;99286.59;10416367;28;20052;-74
2023/10/08 18:17:03;;;;;;;45.88;13.07;;;;;;;12.44;76.65;99290.25;10415901;28;20041;-74
2023/10/08 18:22:03;;;;;;;51.90;13.00;;;;;;;12.34;76.34;99289.88;10416332;28;20397;-74
2023/10/08 18:27:07;;;;;;;34.60;10.77;;;;;;;12.31;76.63;99296.41;10415495;28;20041;-75
2023/10/08 18:32:09;;;;;;;40.95;10.30;;;;;;;12.27;76.59;99299.72;10414699;28;20045;-74
2023/10/08 18:37:10;;;;;;;32.28;12.80;;;;;;;12.34;76.28;99296.00;10415346;28;20120;-74
2023/10/08 18:42:12;;;;;;;40.35;14.60;;;;;;;12.27;76.18;99287.22;10414498;28;20125;-75
2023/10/08 18:47:14;;;;;;;34.72;13.60;;;;;;;12.36;75.53;99309.13;10414320;28;20116;-74
2023/10/08 18:52:15;;;;;;;27.92;12.98;;;;;;;12.24;75.17;99295.63;10413066;28;20048;-74
2023/10/08 18:57:17;;;;;;;31.35;14.40;;;;;;;11.99;74.80;99246.63;10413811;28;20037;-78
2023/10/08 19:02:18;;;;;;;34.35;13.48;;;;;;;12.41;74.44;99313.84;10413664;28;20052;-74
2023/10/08 19:07:19;;;;;;;29.35;12.52;;;;;;;12.13;74.35;99276.75;10414885;28;20060;-75
2023/10/08 19:12:20;;;;;;;30.83;14.98;;;;;;;12.11;74.34;99308.91;10413835;28;20052;-74
2023/10/08 19:17:20;;;;;;;38.78;14.38;;;;;;;11.70;74.20;99251.31;10413110;28;20045;-74
2023/10/08 19:22:21;;;;;;;42.28;17.13;;;;;;;11.98;73.67;99291.06;10412969;28;20102;-76
2023/10/08 19:27:23;;;;;;;50.88;19.45;;;;;;;11.98;73.65;99291.06;10419918;28;20459;-72
2023/10/08 19:32:25;;;;;;;56.92;22.10;;;;;;;11.76;73.97;99290.41;10420448;28;20459;-74
2023/10/08 19:37:26;;;;;;;36.75;17.20;;;;;;;11.73;74.18;99320.06;10412484;28;20128;-74
2023/10/08 19:42:27;;;;;;;54.75;17.55;;;;;;;11.58;74.72;99306.13;10413730;28;20136;-74
2023/10/08 19:47:30;;;;;;;51.70;15.75;;;;;;;11.53;74.86;99300.56;10413101;28;20037;-73
2023/10/08 19:52:32;;;;;;;35.28;13.73;;;;;;;11.38;75.23;99296.22;10413313;28;20049;-75
2023/10/08 19:57:33;;;;;;;32.60;13.75;;;;;;;11.38;75.54;99304.19;10411083;28;20037;-74
2023/10/08 20:02:34;;;;;;;36.90;13.77;;;;;;;11.35;75.74;99303.78;10412168;28;20077;-74
2023/10/08 20:07:35;;;;;;;43.13;15.68;;;;;;;10.95;75.96;99261.06;10413283;28;20057;-74
2023/10/08 20:12:38;;;;;;;37.65;11.98;;;;;;;11.16;76.19;99308.81;10419227;28;20187;-74
2023/10/08 20:17:40;;;;;;;41.08;12.68;;;;;;;11.09;76.22;99293.81;10420553;28;20119;-75
2023/10/08 20:22:49;;;;;;;46.55;12.10;;;;;;;11.23;77.68;99303.50;10419919;28;20505;-75
2023/10/08 20:27:50;;;;;;;30.40;10.90;;;;;;;11.40;76.17;99296.84;10418347;28;20116;-75
2023/10/08 20:32:54;;;;;;;40.22;11.38;;;;;;;11.49;76.59;99284.19;10419608;28;20049;-74
2023/10/08 20:37:56;;;;;;;34.13;11.30;;;;;;;11.24;76.33;99232.56;10418899;28;20103;-75
2023/10/08 20:42:57;;;;;;;54.45;17.83;;;;;;;11.59;76.71;99278.47;10419769;28;20420;-75
2023/10/08 20:48:00;;;;;;;72.45;29.27;;;;;;;11.22;77.26;99227.44;10419021;28;20033;-74
2023/10/08 20:53:02;;;;;;;72.38;24.85;;;;;;;11.12;77.45;99203.06;10418529;28;20045;-74
2023/10/08 20:58:04;;;;;;;80.25;20.58;;;;;;;11.73;77.28;99293.47;10419315;28;20037;-74
2023/10/08 21:03:07;;;;;;;57.42;16.90;;;;;;;11.50;77.89;99271.72;10419058;28;20042;-75
2023/10/08 21:08:11;;;;;;;52.70;14.75;;;;;;;11.52;77.88;99275.81;10418313;28;20144;-75
2023/10/08 21:13:12;;;;;;;28.70;12.47;;;;;;;11.40;77.70;99267.59;10417767;28;20550;-75
2023/10/08 21:18:13;;;;;;;32.40;12.23;;;;;;;11.20;78.25;99238.25;10418394;28;20041;-74
2023/10/08 21:23:14;;;;;;;33.75;12.18;;;;;;;11.06;78.29;99223.28;10417661;28;20045;-75
2023/10/08 21:28:15;;;;;;;29.58;12.88;;;;;;;11.63;77.62;99298.31;10417962;28;20443;-75
2023/10/08 21:33:16;;;;;;;30.88;11.77;;;;;;;11.72;77.34;99310.44;10417186;28;20038;-75
2023/10/08 21:38:17;;;;;;;34.47;12.05;;;;;;;11.71;77.61;99306.13;10417581;28;20037;-75
2023/10/08 21:43:18;;;;;;;26.98;12.20;;;;;;;11.64;77.95;99292.00;10417478;28;20091;-74
2023/10/08 21:48:18;;;;;;;32.95;11.75;;;;;;;11.65;78.00;99289.13;10416863;28;20048;-75
2023/10/08 21:53:19;;;;;;;43.47;12.68;;;;;;;11.64;78.19;99281.38;10417045;28;20041;-75
2023/10/08 21:58:20;;;;;;;29.35;11.45;;;;;;;11.69;77.94;99291.38;10416823;28;20041;-75
2023/10/08 22:03:21;;;;;;;55.42;12.40;;;;;;;11.71;78.18;99286.69;10416735;28;20045;-74
2023/10/08 22:08:23;;;;;;;47.88;11.75;;;;;;;11.64;78.79;99278.72;10415844;28;20151;-74
2023/10/08 22:13:25;;;;;;;42.95;12.85;;;;;;;11.64;79.09;99257.44;10415673;28;20053;-75
2023/10/08 22:18:29;;;;;;;39.03;12.52;;;;;;;11.63;78.94;99258.44;10414625;28;20037;-75
2023/10/08 22:23:30;;;;;;;44.83;11.67;;;;;;;11.61;79.20;99247.19;10415953;28;20115;-75
2023/10/08 22:28:34;;;;;;;22.33;11.13;;;;;;;11.61;79.27;99239.22;10415093;28;20091;-74
2023/10/08 22:33:39;;;;;;;30.02;11.25;;;;;;;11.51;79.29;99236.09;10415125;28;20615;-75
2023/10/08 22:38:42;;;;;;;30.95;11.38;;;;;;;11.11;79.46;99182.81;10414000;28;20118;-74
2023/10/08 22:43:43;;;;;;;26.77;12.32;;;;;;;11.54;79.05;99219.75;10415027;28;20531;-75
2023/10/08 22:48:44;;;;;;;29.83;12.45;;;;;;;11.45;78.30;99200.50;10414949;28;20052;-75
2023/10/08 22:53:44;;;;;;;31.58;12.10;;;;;;;11.57;77.83;99206.03;10414093;28;20048;-74
2023/10/08 22:58:45;;;;;;;33.15;11.85;;;;;;;11.44;76.75;99182.91;10414614;28;20060;-75
2023/10/08 23:03:50;;;;;;;19.73;11.10;;;;;;;11.78;76.33;99243.09;10414812;28;20049;-75
2023/10/08 23:08:51;;;;;;;;;;;;;;;11.93;76.58;99256.25;10414213;28;20479;-74
2023/10/08 23:13:52;;;;;;;28.88;11.90;;;;;;;11.46;76.54;99244.69;10413994;28;19920;-74
2023/10/08 23:18:54;;;;;;;23.88;12.60;;;;;;;11.14;77.04;99225.78;10413979;28;20401;-74
2023/10/08 23:23:56;;;;;;;23.52;9.25;;;;;;;11.86;73.97;99314.81;10412849;28;20072;-75
2023/10/08 23:28:58;;;;;;;23.20;8.57;;;;;;;12.64;70.43;99343.53;10412045;28;20041;-76
2023/10/08 23:34:00;;;;;;;23.20;7.35;;;;;;;12.62;69.66;99308.28;10412990;28;20516;-76
2023/10/08 23:44:26;;;;;;;22.45;3.05;;;;;;;13.00;73.52;99353.75;10413017;28;20072;-76
2023/10/08 23:49:29;;;;;;;8.90;2.08;;;;;;;13.24;76.01;99397.59;10413375;28;20128;-75
2023/10/08 23:54:33;;;;;;;9.18;1.90;;;;;;;13.05;77.10;99409.13;10413072;28;20044;-76
2023/10/08 23:59:42;;;;;;;13.80;2.13;;;;;;;12.95;77.62;99408.72;10412915;28;20136;-77
